Time,TemperatureF,DewpointF,PressureIn,WindDirection,WindDirectionDegrees,WindSpeedMPH,WindSpeedGustMPH,Humidity,HourlyPrecipIn,Conditions,Clouds,dailyrainin,SoftwareType,DateUTC
2013-06-09 00:02:00,80.2,77.0,29.82,SSE,152,13.8,13.8,90,0.00,CLR,,0.00,WeatherDisplay:10.37,2013-06-09 05:02:00,
2013-06-09 00:07:00,80.2,77.0,29.82,SSE,159,6.9,6.9,90,0.00,CLR,,0.00,WeatherDisplay:10.37,2013-06-09 05:07:00,
2013-06-09 00:12:00,80.2,77.0,29.82,SSE,154,11.5,11.5,90,0.00,CLR,,0.00,WeatherDisplay:10.37,2013-06-09 05:12:00,
2013-06-09 00:17:00,80.3,77.1,29.82,SSE,152,10.4,10.4,90,0.00,CLR,,0.00,WeatherDisplay:10.37,2013-06-09 05:17:00,
2013-06-09 00:22:00,80.2,77.0,29.82,ESE,122,9.2,9.2,90,0.00,CLR,,0.00,WeatherDisplay:10.37,2013-06-09 05:22:00,
2013-06-09 00:27:00,80.2,77.3,29.82,SE,137,12.7,12.7,91,0.00,CLR,,0.00,WeatherDisplay:10.37,2013-06-09 05:27:00,
2013-06-09 00:32:00,80.2,77.0,29.82,SSE,158,10.4,10.4,90,0.00,CLR,,0.00,WeatherDisplay:10.37,2013-06-09 05:32:00,
2013-06-09 00:37:00,80.2,77.0,29.81,SE,139,12.7,12.7,90,0.00,CLR,,0.00,WeatherDisplay:10.37,2013-06-09 05:37:00,
2013-06-09 00:42:00,80.3,77.1,29.81,SE,136,13.8,13.8,90,0.00,CLR,,0.00,WeatherDisplay:10.37,2013-06-09 05:42:00,
2013-06-09 00:47:00,80.3,77.4,29.81,SE,135,10.4,10.4,91,0.00,CLR,,0.00,WeatherDisplay:10.37,2013-06-09 05:47:00,
2013-06-09 00:52:00,80.4,77.5,29.81,SE,130,5.8,5.8,91,0.00,CLR,,0.00,WeatherDisplay:10.37,2013-06-09 05:52:00,
2013-06-09 00:57:00,80.4,77.5,29.81,SE,136,9.2,9.2,91,0.00,CLR,,0.00,WeatherDisplay:10.37,2013-06-09 05:57:00,
2013-06-09 01:02:00,80.3,77.4,29.81,SE,134,9.2,9.2,91,0.00,CLR,,0.00,WeatherDisplay:10.37,2013-06-09 06:02:00,
2013-06-09 01:07:00,80.3,77.4,29.81,SE,124,12.6,12.6,91,0.00,CLR,,0.00,WeatherDisplay:10.37,2013-06-09 06:07:00,
2013-06-09 01:12:00,80.3,77.4,29.82,SE,143,11.5,11.5,91,0.00,CLR,,0.00,WeatherDisplay:10.37,2013-06-09 06:12:00,
2013-06-09 01:17:00,80.4,77.5,29.82,SE,128,15.0,15.0,91,0.00,CLR,,0.00,WeatherDisplay:10.37,2013-06-09 06:17:00,
2013-06-09 01:22:00,80.4,77.2,29.82,SSE,148,15.0,15.0,90,0.00,CLR,,0.00,WeatherDisplay:10.37,2013-06-09 06:22:00,
2013-06-09 01:27:00,80.4,77.2,29.82,SE,133,12.7,12.7,90,0.00,CLR,,0.00,WeatherDisplay:10.37,2013-06-09 06:27:00,
2013-06-09 01:32:00,80.5,77.3,29.82,ESE,115,18.4,18.4,90,0.00,CLR,,0.00,WeatherDisplay:10.37,2013-06-09 06:32:00,
2013-06-09 01:37:00,80.5,77.3,29.82,SE,139,17.3,17.3,90,0.00,CLR,,0.00,WeatherDisplay:10.37,2013-06-09 06:37:00,
2013-06-09 01:42:00,80.5,77.3,29.82,SSE,156,19.6,19.6,90,0.00,CLR,,0.00,WeatherDisplay:10.37,2013-06-09 06:42:00,
2013-06-09 01:47:00,80.6,77.4,29.81,ESE,110,17.3,17.3,90,0.00,CLR,,0.00,WeatherDisplay:10.37,2013-06-09 06:47:00,
2013-06-09 01:52:00,80.6,77.7,29.81,SE,127,16.1,16.1,91,0.00,CLR,,0.00,WeatherDisplay:10.37,2013-06-09 06:52:00,
2013-06-09 01:57:00,80.5,77.6,29.81,SE,134,15.0,15.0,91,0.00,CLR,,0.00,WeatherDisplay:10.37,2013-06-09 06:57:00,
2013-06-09 02:02:00,80.5,77.6,29.81,SSE,160,18.4,18.4,91,0.00,CLR,,0.00,WeatherDisplay:10.37,2013-06-09 07:02:00,
2013-06-09 02:07:00,80.4,77.5,29.81,ESE,120,15.0,15.0,91,0.00,CLR,,0.00,WeatherDisplay:10.37,2013-06-09 07:07:00,
2013-06-09 02:12:00,80.6,77.7,29.81,SE,124,17.3,17.3,91,0.00,CLR,,0.00,WeatherDisplay:10.37,2013-06-09 07:12:00,
2013-06-09 02:17:00,80.6,77.7,29.81,SE,139,15.0,15.0,91,0.00,CLR,,0.00,WeatherDisplay:10.37,2013-06-09 07:17:00,
2013-06-09 02:22:00,80.6,77.4,29.81,SE,139,12.7,12.7,90,0.00,CLR,,0.00,WeatherDisplay:10.37,2013-06-09 07:22:00,
2013-06-09 02:27:00,80.6,77.4,29.81,SE,137,17.3,17.3,90,0.00,CLR,,0.00,WeatherDisplay:10.37,2013-06-09 07:27:00,
2013-06-09 02:32:00,80.7,77.5,29.82,ESE,122,17.3,17.3,90,0.00,CLR,,0.00,WeatherDisplay:10.37,2013-06-09 07:32:00,
2013-06-09 02:37:00,80.8,77.6,29.82,South,172,10.5,10.5,90,0.00,CLR,,0.00,WeatherDisplay:10.37,2013-06-09 07:37:00,
2013-06-09 02:42:00,80.7,77.5,29.82,SSE,157,17.3,17.3,90,0.00,CLR,,0.00,WeatherDisplay:10.37,2013-06-09 07:42:00,
2013-06-09 02:47:00,80.7,77.5,29.82,SSE,152,12.7,12.7,90,0.00,CLR,,0.00,WeatherDisplay:10.37,2013-06-09 07:47:00,
2013-06-09 02:52:00,80.7,77.5,29.82,ESE,120,6.9,6.9,90,0.00,CLR,,0.00,WeatherDisplay:10.37,2013-06-09 07:52:00,
2013-06-09 02:57:00,80.7,77.8,29.82,ESE,122,11.5,11.5,91,0.00,CLR,,0.00,WeatherDisplay:10.37,2013-06-09 07:57:00,
2013-06-09 03:02:00,80.7,77.8,29.82,SE,146,11.5,11.5,91,0.00,CLR,,0.00,WeatherDisplay:10.37,2013-06-09 08:02:00,
2013-06-09 03:07:00,80.7,77.8,29.82,SE,146,8.1,8.1,91,0.00,CLR,,0.00,WeatherDisplay:10.37,2013-06-09 08:07:00,
2013-06-09 03:12:00,80.7,77.8,29.82,SE,129,5.8,5.8,91,0.00,CLR,,0.00,WeatherDisplay:10.37,2013-06-09 08:12:00,
2013-06-09 03:17:00,80.7,77.8,29.82,ESE,117,5.8,5.8,91,0.00,CLR,,0.00,WeatherDisplay:10.37,2013-06-09 08:17:00,
2013-06-09 03:22:00,80.7,77.8,29.83,SSE,159,6.9,6.9,91,0.00,CLR,,0.00,WeatherDisplay:10.37,2013-06-09 08:22:00,
2013-06-09 03:27:00,80.8,77.9,29.83,South,172,10.4,10.4,91,0.00,CLR,,0.00,WeatherDisplay:10.37,2013-06-09 08:27:00,
2013-06-09 03:32:00,80.8,77.9,29.83,ESE,118,12.7,12.7,91,0.00,CLR,,0.00,WeatherDisplay:10.37,2013-06-09 08:32:00,
2013-06-09 03:37:00,80.8,77.9,29.83,SE,124,8.1,8.1,91,0.00,CLR,,0.00,WeatherDisplay:10.37,2013-06-09 08:37:00,
2013-06-09 03:42:00,80.8,77.9,29.82,SSW,197,6.9,6.9,91,0.00,CLR,,0.00,WeatherDisplay:10.37,2013-06-09 08:42:00,
2013-06-09 03:47:00,80.8,77.9,29.82,SSE,147,9.2,9.2,91,0.00,CLR,,0.00,WeatherDisplay:10.37,2013-06-09 08:47:00,
2013-06-09 03:52:00,80.8,77.9,29.82,SE,136,5.8,5.8,91,0.00,CLR,,0.00,WeatherDisplay:10.37,2013-06-09 08:52:00,
2013-06-09 03:57:00,80.8,78.3,29.83,SE,124,5.3,5.3,92,0.00,CLR,,0.00,WeatherDisplay:10.37,2013-06-09 08:57:00,
2013-06-09 04:02:00,80.8,78.3,29.83,SSW,201,10.4,10.4,92,0.00,CLR,,0.00,WeatherDisplay:10.37,2013-06-09 09:02:00,
2013-06-09 04:07:00,80.9,78.4,29.83,SSE,158,4.6,4.6,92,0.00,CLR,,0.00,WeatherDisplay:10.37,2013-06-09 09:07:00,
2013-06-09 04:12:00,80.8,78.3,29.83,SSE,154,4.6,4.6,92,0.00,CLR,,0.00,WeatherDisplay:10.37,2013-06-09 09:12:00,
2013-06-09 04:17:00,80.8,78.3,29.82,SE,139,5.8,5.8,92,0.00,CLR,,0.00,WeatherDisplay:10.37,2013-06-09 09:17:00,
2013-06-09 04:22:00,80.6,78.4,29.82,SE,133,4.6,4.6,93,0.00,CLR,,0.00,WeatherDisplay:10.37,2013-06-09 09:22:00,
2013-06-09 04:27:00,80.4,78.2,29.82,South,179,5.8,5.8,93,0.00,CLR,,0.00,WeatherDisplay:10.37,2013-06-09 09:27:00,
2013-06-09 04:32:00,80.2,78.3,29.82,SSE,155,12.7,12.7,94,0.02,RA,,0.02,WeatherDisplay:10.37,2013-06-09 09:32:00,
2013-06-09 04:37:00,79.9,78.3,29.82,SE,137,12.7,12.7,95,0.06,RA,,0.07,WeatherDisplay:10.37,2013-06-09 09:37:00,
2013-06-09 04:42:00,79.5,77.9,29.81,SE,127,11.5,11.5,95,0.09,RA,,0.09,WeatherDisplay:10.37,2013-06-09 09:42:00,
2013-06-09 04:47:00,79.3,78.1,29.81,SE,134,13.8,13.8,96,0.09,RA,,0.09,WeatherDisplay:10.37,2013-06-09 09:47:00,
2013-06-09 04:52:00,79.1,78.2,29.81,SSE,153,9.2,9.2,97,0.09,CLR,,0.09,WeatherDisplay:10.37,2013-06-09 09:52:00,
2013-06-09 04:57:00,79.0,78.1,29.81,SE,143,10.4,10.4,97,0.09,CLR,,0.09,WeatherDisplay:10.37,2013-06-09 09:57:00,
2013-06-09 05:02:00,78.9,78.0,29.80,SSE,148,11.5,11.5,97,0.09,CLR,,0.09,WeatherDisplay:10.37,2013-06-09 10:02:00,
2013-06-09 05:07:00,78.8,78.2,29.80,SE,135,10.4,10.4,98,0.09,CLR,,0.09,WeatherDisplay:10.37,2013-06-09 10:07:00,
2013-06-09 05:12:00,78.6,78.0,29.79,SSE,158,10.4,10.4,98,0.09,CLR,,0.09,WeatherDisplay:10.37,2013-06-09 10:12:00,
2013-06-09 05:17:00,78.6,78.0,29.79,SSE,158,8.1,8.1,98,0.09,CLR,,0.09,WeatherDisplay:10.37,2013-06-09 10:17:00,
2013-06-09 05:22:00,78.7,78.1,29.79,South,176,15.0,15.0,98,0.09,CLR,,0.09,WeatherDisplay:10.37,2013-06-09 10:22:00,
2013-06-09 05:27:00,78.8,77.9,29.79,SSE,155,6.9,6.9,97,0.09,CLR,,0.09,WeatherDisplay:10.37,2013-06-09 10:27:00,
2013-06-09 05:32:00,78.9,78.0,29.79,SSE,165,15.0,15.0,97,0.07,CLR,,0.09,WeatherDisplay:10.37,2013-06-09 10:32:00,
2013-06-09 05:37:00,78.9,78.0,29.79,South,179,6.9,6.9,97,0.03,CLR,,0.09,WeatherDisplay:10.37,2013-06-09 10:37:00,
2013-06-09 05:42:00,79.0,78.1,29.79,SSE,155,10.4,10.4,97,0.00,CLR,,0.09,WeatherDisplay:10.37,2013-06-09 10:42:00,
2013-06-09 05:47:00,79.1,78.2,29.80,South,189,8.1,8.1,97,0.00,CLR,,0.09,WeatherDisplay:10.37,2013-06-09 10:47:00,
2013-06-09 05:52:00,79.1,77.9,29.80,SW,216,5.8,5.8,96,0.00,CLR,,0.09,WeatherDisplay:10.37,2013-06-09 10:52:00,
2013-06-09 05:57:00,79.1,77.9,29.81,SSE,150,6.3,6.3,96,0.00,CLR,,0.09,WeatherDisplay:10.37,2013-06-09 10:57:00,
2013-06-09 06:02:00,79.1,77.9,29.81,SE,136,5.8,5.8,96,0.00,CLR,,0.09,WeatherDisplay:10.37,2013-06-09 11:02:00,
2013-06-09 06:07:00,79.2,78.0,29.81,ESE,122,6.9,6.9,96,0.00,CLR,,0.09,WeatherDisplay:10.37,2013-06-09 11:07:00,
2013-06-09 06:12:00,79.3,78.1,29.81,SE,142,7.4,7.4,96,0.00,CLR,,0.09,WeatherDisplay:10.37,2013-06-09 11:12:00,
2013-06-09 06:17:00,79.3,77.7,29.81,SE,142,8.1,8.1,95,0.00,CLR,,0.09,WeatherDisplay:10.37,2013-06-09 11:17:00,
2013-06-09 06:22:00,79.3,77.7,29.81,SE,136,8.1,8.1,95,0.00,CLR,,0.09,WeatherDisplay:10.37,2013-06-09 11:22:00,
2013-06-09 06:27:00,79.3,77.7,29.82,SSE,150,6.9,6.9,95,0.00,CLR,,0.09,WeatherDisplay:10.37,2013-06-09 11:27:00,
2013-06-09 06:32:00,79.2,77.6,29.82,South,174,4.6,4.6,95,0.00,CLR,,0.09,WeatherDisplay:10.37,2013-06-09 11:32:00,
2013-06-09 06:37:00,79.3,77.7,29.82,SE,133,5.8,5.8,95,0.00,CLR,,0.09,WeatherDisplay:10.37,2013-06-09 11:37:00,
2013-06-09 06:42:00,79.3,77.7,29.82,SSE,155,6.9,6.9,95,0.00,CLR,,0.09,WeatherDisplay:10.37,2013-06-09 11:42:00,
2013-06-09 06:47:00,79.3,77.7,29.82,South,169,5.8,5.8,95,0.00,CLR,,0.09,WeatherDisplay:10.37,2013-06-09 11:47:00,
2013-06-09 06:52:00,79.4,77.8,29.82,SSE,158,5.8,5.8,95,0.00,CLR,,0.09,WeatherDisplay:10.37,2013-06-09 11:52:00,
2013-06-09 06:57:00,79.5,77.9,29.82,SSE,168,5.8,5.8,95,0.00,CLR,,0.09,WeatherDisplay:10.37,2013-06-09 11:57:00,
2013-06-09 07:02:00,79.6,78.0,29.82,SSE,149,10.4,10.4,95,0.00,CLR,,0.09,WeatherDisplay:10.37,2013-06-09 12:02:00,
2013-06-09 07:07:00,79.7,78.1,29.82,South,186,4.6,4.6,95,0.00,CLR,,0.09,WeatherDisplay:10.37,2013-06-09 12:07:00,
2013-06-09 07:12:00,79.8,78.2,29.82,South,190,6.9,6.9,95,0.00,CLR,,0.09,WeatherDisplay:10.37,2013-06-09 12:12:00,
2013-06-09 07:17:00,79.8,78.2,29.82,SSW,196,3.5,3.5,95,0.00,CLR,,0.09,WeatherDisplay:10.37,2013-06-09 12:17:00,
2013-06-09 07:22:00,80.0,78.4,29.83,SSW,195,5.8,5.8,95,0.00,CLR,,0.09,WeatherDisplay:10.37,2013-06-09 12:22:00,
2013-06-09 07:27:00,80.2,78.3,29.82,South,179,4.6,4.6,94,0.00,CLR,,0.09,WeatherDisplay:10.37,2013-06-09 12:27:00,
2013-06-09 07:32:00,80.5,78.6,29.83,South,181,4.6,4.6,94,0.00,CLR,,0.09,WeatherDisplay:10.37,2013-06-09 12:32:00,
2013-06-09 07:37:00,80.7,78.5,29.82,South,185,6.9,6.9,93,0.00,CLR,,0.09,WeatherDisplay:10.37,2013-06-09 12:37:00,
2013-06-09 07:42:00,80.7,78.5,29.82,South,189,3.5,3.5,93,0.00,CLR,,0.09,WeatherDisplay:10.37,2013-06-09 12:42:00,
2013-06-09 07:47:00,80.7,78.2,29.82,SSE,152,3.5,3.5,92,0.00,CLR,,0.09,WeatherDisplay:10.37,2013-06-09 12:47:00,
2013-06-09 07:52:00,80.8,78.6,29.82,SE,133,6.9,6.9,93,0.00,CLR,,0.09,WeatherDisplay:10.37,2013-06-09 12:52:00,
2013-06-09 07:57:00,80.9,78.7,29.83,SSE,166,5.8,5.8,93,0.00,CLR,,0.09,WeatherDisplay:10.37,2013-06-09 12:57:00,
2013-06-09 08:02:00,81.1,78.9,29.82,ESE,122,9.2,9.2,93,0.00,CLR,,0.09,WeatherDisplay:10.37,2013-06-09 13:02:00,
2013-06-09 08:07:00,81.5,78.9,29.82,SE,143,5.8,5.8,92,0.00,CLR,,0.09,WeatherDisplay:10.37,2013-06-09 13:07:00,
2013-06-09 08:12:00,82.0,79.4,29.82,SSE,152,5.8,5.8,92,0.00,CLR,,0.09,WeatherDisplay:10.37,2013-06-09 13:12:00,
2013-06-09 08:17:00,82.3,79.4,29.82,South,172,6.9,6.9,91,0.00,CLR,,0.09,WeatherDisplay:10.37,2013-06-09 13:17:00,
2013-06-09 08:22:00,82.6,79.4,29.82,SSE,155,3.5,3.5,90,0.00,CLR,,0.09,WeatherDisplay:10.37,2013-06-09 13:22:00,
2013-06-09 08:27:00,82.9,79.0,29.83,SSE,153,6.9,6.9,88,0.00,CLR,,0.09,WeatherDisplay:10.37,2013-06-09 13:27:00,
2013-06-09 08:32:00,83.1,79.2,29.83,South,178,9.2,9.2,88,0.00,CLR,,0.09,WeatherDisplay:10.37,2013-06-09 13:32:00,
2013-06-09 08:37:00,83.3,79.0,29.83,South,176,5.8,5.8,87,0.00,CLR,,0.09,WeatherDisplay:10.37,2013-06-09 13:37:00,
2013-06-09 08:42:00,83.3,79.0,29.83,SSE,150,10.4,10.4,87,0.00,CLR,,0.09,WeatherDisplay:10.37,2013-06-09 13:42:00,
2013-06-09 08:47:00,83.1,78.8,29.84,SE,134,6.9,6.9,87,0.00,CLR,,0.09,WeatherDisplay:10.37,2013-06-09 13:47:00,
2013-06-09 08:52:00,83.0,78.7,29.84,South,169,8.1,8.1,87,0.00,CLR,,0.09,WeatherDisplay:10.37,2013-06-09 13:52:00,
2013-06-09 08:57:00,83.3,79.0,29.84,SSE,150,6.9,6.9,87,0.00,CLR,,0.09,WeatherDisplay:10.37,2013-06-09 13:57:00,
2013-06-09 09:02:00,83.7,79.4,29.84,SE,141,10.5,10.5,87,0.00,CLR,,0.09,WeatherDisplay:10.37,2013-06-09 14:02:00,
2013-06-09 09:07:00,83.9,78.9,29.84,ESE,119,11.5,11.5,85,0.00,CLR,,0.09,WeatherDisplay:10.37,2013-06-09 14:07:00,
2013-06-09 09:12:00,83.8,79.2,29.84,South,179,5.8,5.8,86,0.00,CLR,,0.09,WeatherDisplay:10.37,2013-06-09 14:12:00,
2013-06-09 09:17:00,84.0,79.0,29.85,SSE,159,10.4,10.4,85,0.00,CLR,,0.09,WeatherDisplay:10.37,2013-06-09 14:17:00,
2013-06-09 09:22:00,84.3,78.9,29.85,SSW,203,6.9,6.9,84,0.00,CLR,,0.09,WeatherDisplay:10.37,2013-06-09 14:22:00,
2013-06-09 09:27:00,84.6,79.2,29.85,South,188,11.5,11.5,84,0.00,CLR,,0.09,WeatherDisplay:10.37,2013-06-09 14:27:00,
2013-06-09 09:32:00,84.8,79.4,29.85,SSE,167,5.8,5.8,84,0.00,CLR,,0.09,WeatherDisplay:10.37,2013-06-09 14:32:00,
2013-06-09 09:37:00,85.3,79.9,29.85,ESE,122,10.4,10.4,84,0.00,CLR,,0.09,WeatherDisplay:10.37,2013-06-09 14:37:00,
2013-06-09 09:42:00,85.2,78.7,29.84,ESE,121,11.5,11.5,81,0.00,CLR,,0.09,WeatherDisplay:10.37,2013-06-09 14:42:00,
2013-06-09 09:47:00,85.2,79.1,29.85,SW,214,13.8,13.8,82,0.00,CLR,,0.09,WeatherDisplay:10.37,2013-06-09 14:47:00,
2013-06-09 09:52:00,85.0,78.5,29.85,South,185,12.7,12.7,81,0.00,CLR,,0.09,WeatherDisplay:10.37,2013-06-09 14:52:00,
2013-06-09 09:57:00,85.1,79.0,29.84,SE,137,13.8,13.8,82,0.00,CLR,,0.09,WeatherDisplay:10.37,2013-06-09 14:57:00,
2013-06-09 10:02:00,85.3,79.9,29.84,SE,137,9.2,9.2,84,0.00,CLR,,0.09,WeatherDisplay:10.37,2013-06-09 15:02:00,
2013-06-09 10:07:00,85.7,79.9,29.84,ESE,120,6.9,6.9,83,0.00,CLR,,0.09,WeatherDisplay:10.37,2013-06-09 15:07:00,
2013-06-09 10:12:00,85.6,79.1,29.84,ESE,111,11.5,11.5,81,0.00,CLR,,0.09,WeatherDisplay:10.37,2013-06-09 15:12:00,
2013-06-09 10:17:00,85.9,80.1,29.84,ESE,117,11.5,11.5,83,0.00,CLR,,0.09,WeatherDisplay:10.37,2013-06-09 15:17:00,
2013-06-09 10:22:00,86.2,80.1,29.84,SSE,159,6.9,6.9,82,0.00,CLR,,0.09,WeatherDisplay:10.37,2013-06-09 15:22:00,
2013-06-09 10:27:00,86.1,79.2,29.84,SE,133,12.7,12.7,80,0.00,CLR,,0.09,WeatherDisplay:10.37,2013-06-09 15:27:00,
2013-06-09 10:32:00,86.0,79.5,29.84,SSE,156,10.4,10.4,81,0.00,CLR,,0.09,WeatherDisplay:10.37,2013-06-09 15:32:00,
2013-06-09 10:37:00,86.4,79.1,29.84,South,182,5.8,5.8,79,0.00,CLR,,0.09,WeatherDisplay:10.37,2013-06-09 15:37:00,
2013-06-09 10:43:00,86.5,78.0,29.84,SSE,150,13.8,13.8,76,0.00,CLR,,0.09,WeatherDisplay:10.37,2013-06-09 15:43:00,
2013-06-09 10:48:00,86.4,78.3,29.84,SSE,147,9.2,9.2,77,0.00,CLR,,0.09,WeatherDisplay:10.37,2013-06-09 15:48:00,
2013-06-09 10:53:00,86.0,79.5,29.84,SSE,166,9.2,9.2,81,0.00,CLR,,0.09,WeatherDisplay:10.37,2013-06-09 15:53:00,
2013-06-09 10:58:00,86.0,79.1,29.84,SE,143,9.2,9.2,80,0.00,CLR,,0.09,WeatherDisplay:10.37,2013-06-09 15:58:00,
2013-06-09 11:03:00,86.0,79.5,29.84,SSE,155,5.8,5.8,81,0.00,CLR,,0.09,WeatherDisplay:10.37,2013-06-09 16:03:00,
2013-06-09 11:08:00,86.2,79.3,29.84,SE,134,11.5,11.5,80,0.00,CLR,,0.09,WeatherDisplay:10.37,2013-06-09 16:08:00,
2013-06-09 11:13:00,85.7,79.2,29.84,SSE,162,6.9,6.9,81,0.00,CLR,,0.09,WeatherDisplay:10.37,2013-06-09 16:13:00,
2013-06-09 11:18:00,86.2,79.3,29.84,ESE,116,11.5,11.5,80,0.00,CLR,,0.09,WeatherDisplay:10.37,2013-06-09 16:18:00,
2013-06-09 11:23:00,86.1,79.2,29.85,ESE,123,10.4,10.4,80,0.00,CLR,,0.09,WeatherDisplay:10.37,2013-06-09 16:23:00,
2013-06-09 11:28:00,86.1,79.2,29.85,ESE,123,8.1,8.1,80,0.00,CLR,,0.09,WeatherDisplay:10.37,2013-06-09 16:28:00,
2013-06-09 11:33:00,85.7,78.8,29.85,SE,133,12.7,12.7,80,0.00,CLR,,0.09,WeatherDisplay:10.37,2013-06-09 16:33:00,
2013-06-09 11:38:00,85.7,79.2,29.85,SE,129,5.8,5.8,81,0.00,CLR,,0.09,WeatherDisplay:10.37,2013-06-09 16:38:00,
2013-06-09 11:43:00,85.8,79.3,29.85,SE,139,13.8,13.8,81,0.00,CLR,,0.09,WeatherDisplay:10.37,2013-06-09 16:43:00,
2013-06-09 11:48:00,85.5,79.0,29.85,ESE,114,10.4,10.4,81,0.00,CLR,,0.09,WeatherDisplay:10.37,2013-06-09 16:48:00,
2013-06-09 11:53:00,85.8,79.3,29.85,SE,130,10.4,10.4,81,0.00,CLR,,0.09,WeatherDisplay:10.37,2013-06-09 16:53:00,
2013-06-09 11:58:00,85.7,78.8,29.85,ESE,120,13.8,13.8,80,0.00,CLR,,0.09,WeatherDisplay:10.37,2013-06-09 16:58:00,
2013-06-09 12:03:00,85.3,77.7,29.85,ESE,117,11.5,11.5,78,0.00,CLR,,0.09,WeatherDisplay:10.37,2013-06-09 17:03:00,
2013-06-09 12:08:00,86.1,78.8,29.85,SSE,155,10.4,10.4,79,0.00,CLR,,0.09,WeatherDisplay:10.37,2013-06-09 17:08:00,
2013-06-09 12:13:00,87.0,78.9,29.85,SSE,155,5.8,5.8,77,0.00,CLR,,0.09,WeatherDisplay:10.37,2013-06-09 17:13:00,
2013-06-09 12:18:00,87.6,79.9,29.85,SE,143,9.2,9.2,78,0.00,CLR,,0.09,WeatherDisplay:10.37,2013-06-09 17:18:00,
2013-06-09 12:23:00,87.3,79.2,29.85,SE,127,9.2,9.2,77,0.00,CLR,,0.09,WeatherDisplay:10.37,2013-06-09 17:23:00,
2013-06-09 12:28:00,87.2,79.1,29.85,SE,146,11.5,11.5,77,0.00,CLR,,0.09,WeatherDisplay:10.37,2013-06-09 17:28:00,
2013-06-09 12:33:00,86.6,79.3,29.85,SE,127,10.4,10.4,79,0.00,CLR,,0.09,WeatherDisplay:10.37,2013-06-09 17:33:00,
2013-06-09 12:38:00,86.2,78.9,29.85,ESE,110,12.7,12.7,79,0.00,CLR,,0.09,WeatherDisplay:10.37,2013-06-09 17:38:00,
2013-06-09 12:43:00,85.9,78.6,29.85,SE,142,7.4,7.4,79,0.00,CLR,,0.09,WeatherDisplay:10.37,2013-06-09 17:43:00,
2013-06-09 12:48:00,86.3,79.0,29.85,SE,136,6.9,6.9,79,0.00,CLR,,0.09,WeatherDisplay:10.37,2013-06-09 17:48:00,
2013-06-09 12:53:00,86.4,79.1,29.85,SE,146,9.2,9.2,79,0.00,CLR,,0.09,WeatherDisplay:10.37,2013-06-09 17:53:00,
2013-06-09 12:58:00,86.1,78.8,29.85,SSE,157,4.6,4.6,79,0.00,CLR,,0.09,WeatherDisplay:10.37,2013-06-09 17:58:00,
2013-06-09 13:03:00,86.3,78.6,29.85,South,184,10.4,10.4,78,0.00,CLR,,0.09,WeatherDisplay:10.37,2013-06-09 18:03:00,
2013-06-09 13:08:00,86.0,78.3,29.84,SE,143,8.1,8.1,78,0.00,CLR,,0.09,WeatherDisplay:10.37,2013-06-09 18:08:00,
2013-06-09 13:13:00,85.7,78.4,29.84,SE,131,9.4,9.4,79,0.00,CLR,,0.09,WeatherDisplay:10.37,2013-06-09 18:13:00,
2013-06-09 13:18:00,85.5,79.0,29.83,SE,129,9.2,9.2,81,0.00,CLR,,0.09,WeatherDisplay:10.37,2013-06-09 18:18:00,
2013-06-09 13:23:00,85.7,79.2,29.83,SSE,149,6.9,6.9,81,0.00,CLR,,0.09,WeatherDisplay:10.37,2013-06-09 18:23:00,
2013-06-09 13:28:00,86.2,79.3,29.83,ESE,116,11.5,11.5,80,0.00,CLR,,0.09,WeatherDisplay:10.37,2013-06-09 18:28:00,
2013-06-09 13:33:00,86.5,79.6,29.83,East,97,11.5,11.5,80,0.00,CLR,,0.09,WeatherDisplay:10.37,2013-06-09 18:33:00,
2013-06-09 13:38:00,86.7,79.0,29.83,ESE,117,6.9,6.9,78,0.00,CLR,,0.09,WeatherDisplay:10.37,2013-06-09 18:38:00,
2013-06-09 13:43:00,87.0,79.3,29.83,ESE,117,11.5,11.5,78,0.00,CLR,,0.09,WeatherDisplay:10.37,2013-06-09 18:43:00,
2013-06-09 13:48:00,87.1,78.6,29.83,SE,127,10.4,10.4,76,0.00,CLR,,0.09,WeatherDisplay:10.37,2013-06-09 18:48:00,
2013-06-09 13:53:00,87.1,78.2,29.83,SW,214,11.5,11.5,75,0.00,CLR,,0.09,WeatherDisplay:10.37,2013-06-09 18:53:00,
2013-06-09 13:58:00,86.9,77.6,29.83,SE,133,16.1,16.1,74,0.00,CLR,,0.09,WeatherDisplay:10.37,2013-06-09 18:58:00,
2013-06-09 14:03:00,87.1,78.2,29.83,South,182,5.8,5.8,75,0.00,CLR,,0.09,WeatherDisplay:10.37,2013-06-09 19:03:00,
2013-06-09 14:08:00,87.3,78.0,29.83,SE,139,12.7,12.7,74,0.00,CLR,,0.09,WeatherDisplay:10.37,2013-06-09 19:08:00,
2013-06-09 14:13:00,87.1,77.8,29.83,ESE,114,13.8,13.8,74,0.00,CLR,,0.09,WeatherDisplay:10.37,2013-06-09 19:13:00,
2013-06-09 14:18:00,86.7,77.4,29.83,SE,146,10.4,10.4,74,0.00,CLR,,0.09,WeatherDisplay:10.37,2013-06-09 19:18:00,
2013-06-09 14:23:00,86.4,76.3,29.83,SE,129,11.5,11.5,72,0.00,CLR,,0.09,WeatherDisplay:10.37,2013-06-09 19:23:00,
2013-06-09 14:28:00,86.4,76.3,29.83,SE,140,15.0,15.0,72,0.00,CLR,,0.09,WeatherDisplay:10.37,2013-06-09 19:28:00,
2013-06-09 14:33:00,86.7,77.0,29.83,East,91,10.4,10.4,73,0.00,CLR,,0.09,WeatherDisplay:10.37,2013-06-09 19:33:00,
2013-06-09 14:38:00,87.0,77.3,29.83,East,100,11.5,11.5,73,0.00,CLR,,0.09,WeatherDisplay:10.37,2013-06-09 19:38:00,
2013-06-09 14:43:00,87.3,77.6,29.83,SE,126,13.8,13.8,73,0.00,CLR,,0.09,WeatherDisplay:10.37,2013-06-09 19:43:00,
2013-06-09 14:48:00,87.2,77.5,29.82,SE,139,10.4,10.4,73,0.00,CLR,,0.09,WeatherDisplay:10.37,2013-06-09 19:48:00,
2013-06-09 14:53:00,87.1,77.4,29.82,SSE,154,11.5,11.5,73,0.00,CLR,,0.09,WeatherDisplay:10.37,2013-06-09 19:53:00,
2013-06-09 14:58:00,87.3,77.2,29.82,SE,131,6.9,6.9,72,0.00,CLR,,0.09,WeatherDisplay:10.37,2013-06-09 19:58:00,
2013-06-09 15:03:00,87.8,77.2,29.82,SSE,162,5.8,5.8,71,0.00,CLR,,0.09,WeatherDisplay:10.37,2013-06-09 20:03:00,
2013-06-09 15:08:00,88.3,76.8,29.83,SSE,148,5.8,5.8,69,0.00,CLR,,0.09,WeatherDisplay:10.37,2013-06-09 20:08:00,
2013-06-09 15:13:00,88.7,76.8,29.83,SE,131,9.2,9.2,68,0.00,CLR,,0.09,WeatherDisplay:10.37,2013-06-09 20:13:00,
2013-06-09 15:18:00,87.9,74.7,29.83,SSE,156,6.9,6.9,65,0.00,CLR,,0.09,WeatherDisplay:10.37,2013-06-09 20:18:00,
2013-06-09 15:23:00,87.2,75.3,29.83,ESE,115,6.9,6.9,68,0.00,CLR,,0.09,WeatherDisplay:10.37,2013-06-09 20:23:00,
2013-06-09 15:28:00,87.1,75.7,29.83,East,84,5.8,5.8,69,0.00,CLR,,0.09,WeatherDisplay:10.37,2013-06-09 20:28:00,
2013-06-09 15:33:00,86.7,75.3,29.82,SE,124,5.8,5.8,69,0.00,CLR,,0.09,WeatherDisplay:10.37,2013-06-09 20:33:00,
2013-06-09 15:38:00,86.4,75.9,29.83,SE,124,11.5,11.5,71,0.00,CLR,,0.09,WeatherDisplay:10.37,2013-06-09 20:38:00,
2013-06-09 15:43:00,86.0,75.9,29.83,ENE,72,10.4,10.4,72,0.00,CLR,,0.09,WeatherDisplay:10.37,2013-06-09 20:43:00,
2013-06-09 15:48:00,86.0,76.3,29.83,ENE,68,5.8,5.8,73,0.00,CLR,,0.09,WeatherDisplay:10.37,2013-06-09 20:48:00,
2013-06-09 15:53:00,86.0,75.9,29.83,ESE,111,6.9,6.9,72,0.00,CLR,,0.09,WeatherDisplay:10.37,2013-06-09 20:53:00,
2013-06-09 15:58:00,85.9,76.6,29.83,ENE,64,6.9,6.9,74,0.00,CLR,,0.09,WeatherDisplay:10.37,2013-06-09 20:58:00,
2013-06-09 16:03:00,85.8,76.5,29.83,East,96,6.9,6.9,74,0.00,CLR,,0.09,WeatherDisplay:10.37,2013-06-09 21:03:00,
2013-06-09 16:08:00,85.8,76.5,29.83,East,101,5.8,5.8,74,0.00,CLR,,0.09,WeatherDisplay:10.37,2013-06-09 21:08:00,
2013-06-09 16:13:00,85.7,75.6,29.83,SE,127,5.8,5.8,72,0.00,CLR,,0.09,WeatherDisplay:10.37,2013-06-09 21:13:00,
2013-06-09 16:18:00,85.8,76.5,29.83,ESE,121,9.2,9.2,74,0.00,CLR,,0.09,WeatherDisplay:10.37,2013-06-09 21:18:00,
2013-06-09 16:23:00,85.5,75.9,29.83,ENE,72,9.2,9.2,73,0.00,CLR,,0.09,WeatherDisplay:10.37,2013-06-09 21:23:00,
2013-06-09 16:28:00,85.4,76.2,29.83,ENE,72,9.2,9.2,74,0.00,CLR,,0.09,WeatherDisplay:10.37,2013-06-09 21:28:00,
2013-06-09 16:33:00,85.0,75.8,29.83,ENE,75,9.2,9.2,74,0.00,CLR,,0.09,WeatherDisplay:10.37,2013-06-09 21:33:00,
2013-06-09 16:38:00,84.8,75.2,29.82,SE,129,5.8,5.8,73,0.00,CLR,,0.09,WeatherDisplay:10.37,2013-06-09 21:38:00,
2013-06-09 16:43:00,84.8,74.8,29.81,ENE,76,12.7,12.7,72,0.00,CLR,,0.09,WeatherDisplay:10.37,2013-06-09 21:43:00,
2013-06-09 16:48:00,84.7,75.1,29.80,ESE,115,10.4,10.4,73,0.00,CLR,,0.09,WeatherDisplay:10.37,2013-06-09 21:48:00,
2013-06-09 16:53:00,84.8,75.6,29.80,SE,134,6.9,6.9,74,0.00,CLR,,0.09,WeatherDisplay:10.37,2013-06-09 21:53:00,
2013-06-09 16:58:00,84.7,75.1,29.81,ESE,122,11.5,11.5,73,0.00,CLR,,0.09,WeatherDisplay:10.37,2013-06-09 21:58:00,
2013-06-09 17:03:00,84.9,76.1,29.82,East,87,11.6,11.6,75,0.00,CLR,,0.09,WeatherDisplay:10.37,2013-06-09 22:03:00,
2013-06-09 17:08:00,84.9,76.1,29.82,ESE,113,5.8,5.8,75,0.00,CLR,,0.09,WeatherDisplay:10.37,2013-06-09 22:08:00,
2013-06-09 17:13:00,84.9,76.1,29.82,SE,133,11.5,11.5,75,0.00,CLR,,0.09,WeatherDisplay:10.37,2013-06-09 22:13:00,
2013-06-09 17:18:00,85.1,76.3,29.82,ESE,117,4.6,4.6,75,0.00,CLR,,0.09,WeatherDisplay:10.37,2013-06-09 22:18:00,
2013-06-09 17:23:00,85.0,75.8,29.82,SE,129,11.5,11.5,74,0.00,CLR,,0.09,WeatherDisplay:10.37,2013-06-09 22:23:00,
2013-06-09 17:28:00,85.0,76.2,29.82,East,86,13.8,13.8,75,0.00,CLR,,0.09,WeatherDisplay:10.37,2013-06-09 22:28:00,
2013-06-09 17:33:00,84.6,75.8,29.82,East,95,8.1,8.1,75,0.00,CLR,,0.09,WeatherDisplay:10.37,2013-06-09 22:33:00,
2013-06-09 17:38:00,84.3,75.9,29.82,East,89,5.8,5.8,76,0.00,CLR,,0.09,WeatherDisplay:10.37,2013-06-09 22:38:00,
2013-06-09 17:43:00,84.0,75.6,29.81,ESE,111,11.5,11.5,76,0.00,CLR,,0.09,WeatherDisplay:10.37,2013-06-09 22:43:00,
2013-06-09 17:48:00,83.8,75.4,29.81,East,91,6.9,6.9,76,0.00,CLR,,0.09,WeatherDisplay:10.37,2013-06-09 22:48:00,
2013-06-09 17:53:00,83.7,75.7,29.80,SE,126,10.4,10.4,77,0.00,CLR,,0.09,WeatherDisplay:10.37,2013-06-09 22:53:00,
2013-06-09 17:58:00,83.5,75.9,29.80,SE,124,9.2,9.2,78,0.00,CLR,,0.09,WeatherDisplay:10.37,2013-06-09 22:58:00,
2013-06-09 18:03:00,83.3,75.3,29.79,SE,136,11.5,11.5,77,0.00,CLR,,0.09,WeatherDisplay:10.37,2013-06-09 23:03:00,
2013-06-09 18:08:00,83.2,75.6,29.79,ESE,113,15.0,15.0,78,0.00,CLR,,0.09,WeatherDisplay:10.37,2013-06-09 23:08:00,
2013-06-09 18:13:00,83.0,75.4,29.79,SE,126,13.8,13.8,78,0.00,CLR,,0.09,WeatherDisplay:10.37,2013-06-09 23:13:00,
2013-06-09 18:18:00,83.0,75.4,29.80,SE,141,6.9,6.9,78,0.00,CLR,,0.09,WeatherDisplay:10.37,2013-06-09 23:18:00,
2013-06-09 18:23:00,83.1,75.9,29.80,SE,125,5.8,5.8,79,0.00,CLR,,0.09,WeatherDisplay:10.37,2013-06-09 23:23:00,
2013-06-09 18:28:00,83.3,76.1,29.80,East,83,10.4,10.4,79,0.00,CLR,,0.09,WeatherDisplay:10.37,2013-06-09 23:28:00,
2013-06-09 18:33:00,83.2,76.0,29.81,East,98,15.0,15.0,79,0.00,CLR,,0.09,WeatherDisplay:10.37,2013-06-09 23:33:00,
2013-06-09 18:38:00,83.1,75.9,29.81,NE,53,6.9,6.9,79,0.00,CLR,,0.09,WeatherDisplay:10.37,2013-06-09 23:38:00,
2013-06-09 18:43:00,83.1,75.9,29.82,NE,56,4.6,4.6,79,0.00,CLR,,0.09,WeatherDisplay:10.37,2013-06-09 23:43:00,
2013-06-09 18:48:00,83.0,75.8,29.82,ENE,72,4.6,4.6,79,0.00,CLR,,0.09,WeatherDisplay:10.37,2013-06-09 23:48:00,
2013-06-09 18:53:00,82.9,75.3,29.82,ENE,66,5.8,5.8,78,0.00,CLR,,0.09,WeatherDisplay:10.37,2013-06-09 23:53:00,
2013-06-09 18:58:00,82.9,75.3,29.82,East,83,5.8,5.8,78,0.00,CLR,,0.09,WeatherDisplay:10.37,2013-06-09 23:58:00,
2013-06-09 19:03:00,82.9,75.3,29.82,ENE,68,2.3,2.3,78,0.00,CLR,,0.09,WeatherDisplay:10.37,2013-06-10 00:03:00,
2013-06-09 19:08:00,82.9,75.3,29.83,East,83,3.5,3.5,78,0.00,CLR,,0.09,WeatherDisplay:10.37,2013-06-10 00:08:00,
2013-06-09 19:13:00,83.0,75.8,29.83,ENE,77,4.6,4.6,79,0.00,CLR,,0.09,WeatherDisplay:10.37,2013-06-10 00:13:00,
2013-06-09 19:18:00,82.9,75.7,29.83,ENE,68,4.6,4.6,79,0.00,CLR,,0.09,WeatherDisplay:10.37,2013-06-10 00:18:00,
2013-06-09 19:23:00,82.8,75.2,29.83,East,91,6.9,6.9,78,0.00,CLR,,0.09,WeatherDisplay:10.37,2013-06-10 00:23:00,
2013-06-09 19:28:00,82.7,75.1,29.83,ENE,73,5.8,5.8,78,0.00,CLR,,0.09,WeatherDisplay:10.37,2013-06-10 00:28:00,
2013-06-09 19:33:00,82.6,75.0,29.83,ENE,70,4.6,4.6,78,0.00,CLR,,0.09,WeatherDisplay:10.37,2013-06-10 00:33:00,
2013-06-09 19:38:00,82.5,74.9,29.83,East,99,4.6,4.6,78,0.00,CLR,,0.09,WeatherDisplay:10.37,2013-06-10 00:38:00,
2013-06-09 19:43:00,82.5,74.6,29.83,ENE,78,5.3,5.3,77,0.00,CLR,,0.09,WeatherDisplay:10.37,2013-06-10 00:43:00,
2013-06-09 19:48:00,82.4,74.5,29.83,East,88,5.8,5.8,77,0.00,CLR,,0.09,WeatherDisplay:10.37,2013-06-10 00:48:00,
2013-06-09 19:53:00,82.4,75.2,29.83,NE,44,11.5,11.5,79,0.00,CLR,,0.09,WeatherDisplay:10.37,2013-06-10 00:53:00,
2013-06-09 19:58:00,82.4,76.7,29.83,NE,53,6.9,6.9,83,0.00,CLR,,0.09,WeatherDisplay:10.37,2013-06-10 00:58:00,
2013-06-09 20:03:00,82.0,77.4,29.83,ENE,74,6.3,6.3,86,0.00,CLR,,0.09,WeatherDisplay:10.37,2013-06-10 01:03:00,
2013-06-09 20:08:00,81.6,77.4,29.83,NE,55,8.1,8.1,87,0.00,CLR,,0.09,WeatherDisplay:10.37,2013-06-10 01:08:00,
2013-06-09 20:13:00,81.3,77.4,29.83,East,80,5.8,5.8,88,0.00,CLR,,0.09,WeatherDisplay:10.37,2013-06-10 01:13:00,
2013-06-09 20:18:00,81.1,77.2,29.83,NE,54,5.8,5.8,88,0.00,CLR,,0.09,WeatherDisplay:10.37,2013-06-10 01:18:00,
2013-06-09 20:23:00,80.9,77.4,29.84,East,86,4.6,4.6,89,0.00,CLR,,0.09,WeatherDisplay:10.37,2013-06-10 01:23:00,
2013-06-09 20:28:00,80.8,77.3,29.84,NE,54,3.5,3.5,89,0.00,CLR,,0.09,WeatherDisplay:10.37,2013-06-10 01:28:00,
2013-06-09 20:33:00,80.7,77.5,29.84,East,91,6.3,6.3,90,0.00,CLR,,0.09,WeatherDisplay:10.37,2013-06-10 01:33:00,
2013-06-09 20:38:00,80.5,77.3,29.84,ENE,77,6.9,6.9,90,0.00,CLR,,0.09,WeatherDisplay:10.37,2013-06-10 01:38:00,
2013-06-09 20:43:00,80.5,77.3,29.85,East,79,5.8,5.8,90,0.00,CLR,,0.09,WeatherDisplay:10.37,2013-06-10 01:43:00,
2013-06-09 20:48:00,80.4,77.2,29.85,East,81,9.2,9.2,90,0.00,CLR,,0.09,WeatherDisplay:10.37,2013-06-10 01:48:00,
2013-06-09 20:53:00,80.3,77.1,29.85,ENE,78,5.8,5.8,90,0.00,CLR,,0.09,WeatherDisplay:10.37,2013-06-10 01:53:00,
2013-06-09 20:58:00,80.3,77.1,29.85,ENE,57,4.6,4.6,90,0.00,CLR,,0.09,WeatherDisplay:10.37,2013-06-10 01:58:00,
2013-06-09 21:03:00,80.3,77.1,29.85,ENE,76,10.4,10.4,90,0.00,CLR,,0.09,WeatherDisplay:10.37,2013-06-10 02:03:00,
2013-06-09 21:08:00,80.3,77.1,29.85,East,88,8.1,8.1,90,0.00,CLR,,0.09,WeatherDisplay:10.37,2013-06-10 02:08:00,
2013-06-09 21:13:00,80.4,76.9,29.85,East,87,6.9,6.9,89,0.00,CLR,,0.09,WeatherDisplay:10.37,2013-06-10 02:13:00,
2013-06-09 21:18:00,80.4,76.9,29.86,ENE,74,9.2,9.2,89,0.00,CLR,,0.09,WeatherDisplay:10.37,2013-06-10 02:18:00,
2013-06-09 21:23:00,80.4,76.5,29.86,East,86,5.8,5.8,88,0.00,CLR,,0.09,WeatherDisplay:10.37,2013-06-10 02:23:00,
2013-06-09 21:28:00,80.4,76.9,29.86,East,79,5.8,5.8,89,0.00,CLR,,0.09,WeatherDisplay:10.37,2013-06-10 02:28:00,
2013-06-09 21:33:00,80.4,77.2,29.86,East,81,6.9,6.9,90,0.00,CLR,,0.09,WeatherDisplay:10.37,2013-06-10 02:33:00,
2013-06-09 21:38:00,80.3,77.1,29.87,East,91,4.6,4.6,90,0.00,CLR,,0.09,WeatherDisplay:10.37,2013-06-10 02:38:00,
2013-06-09 21:43:00,80.2,77.3,29.87,NE,45,6.3,6.3,91,0.00,CLR,,0.09,WeatherDisplay:10.37,2013-06-10 02:43:00,
2013-06-09 21:48:00,80.2,77.3,29.87,ENE,64,5.8,5.8,91,0.00,CLR,,0.09,WeatherDisplay:10.37,2013-06-10 02:48:00,
2013-06-09 21:53:00,80.1,77.6,29.88,East,85,5.8,5.8,92,0.00,CLR,,0.09,WeatherDisplay:10.37,2013-06-10 02:53:00,
2013-06-09 21:58:00,80.1,77.6,29.88,NNE,32,5.8,5.8,92,0.00,CLR,,0.09,WeatherDisplay:10.37,2013-06-10 02:58:00,
2013-06-09 22:03:00,80.1,77.6,29.88,East,79,5.8,5.8,92,0.00,CLR,,0.09,WeatherDisplay:10.37,2013-06-10 03:03:00,
2013-06-09 22:08:00,80.1,77.9,29.88,East,98,5.8,5.8,93,0.00,CLR,,0.09,WeatherDisplay:10.37,2013-06-10 03:08:00,
2013-06-09 22:13:00,80.0,77.8,29.88,ESE,119,5.8,5.8,93,0.00,CLR,,0.09,WeatherDisplay:10.37,2013-06-10 03:13:00,
2013-06-09 22:18:00,80.0,77.8,29.88,East,85,3.5,3.5,93,0.00,CLR,,0.09,WeatherDisplay:10.37,2013-06-10 03:18:00,
2013-06-09 22:23:00,80.0,77.8,29.88,ESE,110,4.6,4.6,93,0.00,CLR,,0.09,WeatherDisplay:10.37,2013-06-10 03:23:00,
2013-06-09 22:28:00,80.0,77.8,29.88,East,91,6.9,6.9,93,0.00,CLR,,0.09,WeatherDisplay:10.37,2013-06-10 03:28:00,
2013-06-09 22:33:00,80.0,77.8,29.89,ENE,65,6.9,6.9,93,0.00,CLR,,0.09,WeatherDisplay:10.37,2013-06-10 03:33:00,
2013-06-09 22:38:00,80.0,77.8,29.89,East,88,5.8,5.8,93,0.00,CLR,,0.09,WeatherDisplay:10.37,2013-06-10 03:38:00,
2013-06-09 22:43:00,80.1,77.9,29.89,East,86,6.9,6.9,93,0.00,CLR,,0.09,WeatherDisplay:10.37,2013-06-10 03:43:00,
2013-06-09 22:48:00,80.0,77.8,29.89,East,83,6.9,6.9,93,0.00,CLR,,0.09,WeatherDisplay:10.37,2013-06-10 03:48:00,
2013-06-09 22:53:00,80.0,77.8,29.90,ESE,106,5.8,5.8,93,0.00,CLR,,0.09,WeatherDisplay:10.37,2013-06-10 03:53:00,
2013-06-09 22:58:00,80.0,77.8,29.90,ESE,105,5.8,5.8,93,0.00,CLR,,0.09,WeatherDisplay:10.37,2013-06-10 03:58:00,
2013-06-09 23:01:00,80.0,77.8,29.90,East,90,4.6,4.6,93,0.00,CLR,,0.09,WeatherDisplay:10.37,2013-06-10 04:01:00,
2013-06-09 23:02:00,80.0,77.8,29.90,East,86,5.8,5.8,93,0.00,CLR,,0.09,WeatherDisplay:10.37,2013-06-10 04:02:00,
2013-06-09 23:07:00,80.0,77.8,29.90,ESE,123,8.1,8.1,93,0.00,CLR,,0.09,WeatherDisplay:10.37,2013-06-10 04:07:00,
2013-06-09 23:12:00,80.0,77.8,29.90,ENE,71,6.9,6.9,93,0.00,CLR,,0.09,WeatherDisplay:10.37,2013-06-10 04:12:00,
2013-06-09 23:17:00,79.9,77.7,29.90,ESE,109,3.5,3.5,93,0.00,CLR,,0.09,WeatherDisplay:10.37,2013-06-10 04:17:00,
2013-06-09 23:22:00,79.9,77.7,29.90,ENE,77,4.6,4.6,93,0.00,CLR,,0.09,WeatherDisplay:10.37,2013-06-10 04:22:00,
2013-06-09 23:27:00,79.9,77.7,29.90,East,91,5.8,5.8,93,0.00,CLR,,0.09,WeatherDisplay:10.37,2013-06-10 04:27:00,
2013-06-09 23:32:00,80.0,77.8,29.90,ESE,104,7.4,7.4,93,0.00,CLR,,0.09,WeatherDisplay:10.37,2013-06-10 04:32:00,
2013-06-09 23:37:00,80.0,77.8,29.90,ESE,105,5.8,5.8,93,0.00,CLR,,0.09,WeatherDisplay:10.37,2013-06-10 04:37:00,
2013-06-09 23:42:00,80.1,77.9,29.90,ESE,108,5.8,5.8,93,0.00,CLR,,0.09,WeatherDisplay:10.37,2013-06-10 04:42:00,
2013-06-09 23:47:00,80.1,77.9,29.91,East,89,3.5,3.5,93,0.00,CLR,,0.09,WeatherDisplay:10.37,2013-06-10 04:47:00,
2013-06-09 23:52:00,80.1,77.9,29.91,ESE,117,5.8,5.8,93,0.00,CLR,,0.09,WeatherDisplay:10.37,2013-06-10 04:52:00,
2013-06-09 23:57:00,80.1,77.9,29.91,ESE,115,5.8,5.8,93,0.00,CLR,,0.09,WeatherDisplay:10.37,2013-06-10 04:57:00,